Westville, Oklahoma
Current Conditions -  °F | °C
As of 6:15 AM on Friday 24 Oct 2014 (Local Time) from KSLG Reporting Station
Clear Clear  
Wind Chill: 48°   Ceiling: Unl
Heat Index: 48°   Visibility: 5mi
Dew Point: 43°   Wind: 3mph
Humidity: 82%   Direction: 130°SE
Pressure: 30.14"   Gusts: NA
Location:  35.99°N, 94.57°W
Report Text: KSLG 241115Z AUTO 13003KT 5SM CLR 09/06 A3014 RMK AO1
Loading
Personal Weather Stations






























Interactive Weather Map New forecast layout! Learn more

10-Day Weather Forecast

Advertisements
Track Severe Weather on mobile